Time;durP1;ratioP1;P1;durP2;ratioP2;P2;SDS_P1;SDS_P2;PMS_P1;PMS_P2;Temp;Humidity;BMP_temperature;BMP_pressure;BME280_temperature;BME280_humidity;BME280_pressure;Samples;Min_cycle;Max_cycle;Signal;HPM_P1;HPM_P2
2022/06/09 00:00:25;;;;;;;1.00;0.60;;;17.20;99.90;;;;;;7371132;19;20412;-80
2022/06/09 00:03:00;;;;;;;0.63;0.60;;;17.20;99.90;;;;;;7373811;19;20412;-81
2022/06/09 00:05:34;;;;;;;1.17;0.70;;;17.30;99.90;;;;;;7371937;19;21626;-80
2022/06/09 00:08:09;;;;;;;0.93;0.73;;;17.20;99.90;;;;;;7372305;19;20468;-81
2022/06/09 00:10:42;;;;;;;1.13;0.80;;;17.30;99.90;;;;;;7368771;19;20411;-81
2022/06/09 00:13:12;;;;;;;1.07;0.97;;;17.40;99.90;;;;;;7369081;19;20428;-81
2022/06/09 00:15:41;;;;;;;1.53;0.70;;;17.40;99.90;;;;;;7370952;19;21932;-81
2022/06/09 00:18:15;;;;;;;0.67;0.67;;;17.30;99.90;;;;;;7370049;19;20396;-81
2022/06/09 00:20:45;;;;;;;0.57;0.40;;;17.30;99.90;;;;;;7369991;19;20412;-81
2022/06/09 00:23:17;;;;;;;1.27;0.60;;;17.30;99.90;;;;;;7369284;19;20509;-81
2022/06/09 00:25:47;;;;;;;0.50;0.47;;;17.40;99.90;;;;;;7366099;19;20428;-81
2022/06/09 00:28:18;;;;;;;0.70;0.60;;;17.50;99.90;;;;;;7371044;19;21171;-81
2022/06/09 00:30:49;;;;;;;0.63;0.40;;;17.60;99.90;;;;;;7365776;19;20487;-81
2022/06/09 00:33:18;;;;;;;0.83;0.73;;;17.60;99.90;;;;;;7362047;19;20424;-81
2022/06/09 00:35:49;;;;;;;1.07;0.60;;;17.80;99.90;;;;;;7368756;19;20412;-81
2022/06/09 00:38:21;;;;;;;0.50;0.50;;;17.90;99.90;;;;;;7365101;19;20788;-82
2022/06/09 00:40:53;;;;;;;0.60;0.53;;;17.90;99.90;;;;;;7367473;19;20424;-81
2022/06/09 00:43:25;;;;;;;1.63;0.50;;;18.00;99.90;;;;;;7368382;19;20409;-81
2022/06/09 00:46:05;;;;;;;0.70;0.40;;;18.00;99.90;;;;;;7359547;19;20419;-80
2022/06/09 00:48:46;;;;;;;0.40;0.40;;;17.80;99.90;;;;;;7367730;19;20392;-81
2022/06/09 00:51:25;;;;;;;0.93;0.40;;;17.90;99.90;;;;;;7364937;19;21038;-81
2022/06/09 00:54:01;;;;;;;0.57;0.47;;;18.00;99.90;;;;;;7364767;19;20396;-82
2022/06/09 00:56:34;;;;;;;0.90;0.63;;;18.10;99.90;;;;;;7357899;19;20432;-79
2022/06/09 00:59:07;;;;;;;0.80;0.50;;;18.10;99.90;;;;;;7343510;19;20428;-80
2022/06/09 01:01:39;;;;;;;1.13;0.80;;;18.20;99.90;;;;;;7380765;19;20412;-80
2022/06/09 01:04:13;;;;;;;0.60;0.57;;;18.40;99.90;;;;;;7384959;19;20427;-81
2022/06/09 01:06:49;;;;;;;0.70;0.53;;;18.50;99.90;;;;;;7386065;19;20419;-79
2022/06/09 01:09:24;;;;;;;1.70;0.47;;;18.30;99.90;;;;;;7385677;19;20419;-79
2022/06/09 01:11:59;;;;;;;0.60;0.40;;;18.30;99.90;;;;;;7374650;19;20795;-80
2022/06/09 01:14:30;;;;;;;1.00;0.60;;;18.20;99.90;;;;;;7370626;19;20416;-80
2022/06/09 01:17:11;;;;;;;2.10;0.60;;;18.00;99.90;;;;;;7374576;19;20439;-81
2022/06/09 01:20:11;;;;;;;3.03;0.60;;;18.10;99.90;;;;;;7364314;19;20404;-80
2022/06/09 01:23:06;;;;;;;0.60;0.60;;;18.10;99.90;;;;;;7372084;19;20411;-80
2022/06/09 01:26:08;;;;;;;0.83;0.60;;;18.10;99.90;;;;;;7369712;19;20772;-80
2022/06/09 01:29:16;;;;;;;0.90;0.40;;;18.00;99.90;;;;;;7370166;19;21703;-80
2022/06/09 01:31:58;;;;;;;2.63;0.50;;;18.00;99.90;;;;;;7368128;19;21501;-80
2022/06/09 01:34:37;;;;;;;0.83;0.40;;;18.00;99.90;;;;;;7369311;19;20375;-80
2022/06/09 01:37:15;;;;;;;1.03;0.53;;;18.00;99.90;;;;;;7371748;19;20380;-80
2022/06/09 01:39:51;;;;;;;0.40;0.30;;;18.00;99.90;;;;;;7369944;19;20405;-80
2022/06/09 01:42:24;;;;;;;0.47;0.40;;;18.00;99.90;;;;;;7375258;19;20421;-80
2022/06/09 01:44:56;;;;;;;1.67;0.47;;;18.00;99.90;;;;;;7373336;19;20404;-80
2022/06/09 01:47:36;;;;;;;0.77;0.53;;;17.90;99.90;;;;;;7367131;19;20422;-80
2022/06/09 01:50:11;;;;;;;0.57;0.40;;;17.80;99.90;;;;;;7374642;19;20411;-80
2022/06/09 01:52:44;;;;;;;1.20;0.50;;;17.80;99.90;;;;;;7375277;19;21227;-81
2022/06/09 01:55:19;;;;;;;1.50;0.50;;;17.80;99.90;;;;;;7363536;19;20420;-81
2022/06/09 01:57:53;;;;;;;0.93;0.53;;;17.90;99.90;;;;;;7362597;19;20450;-80
2022/06/09 02:00:23;;;;;;;3.40;0.53;;;17.70;99.90;;;;;;7342095;19;20424;-81
2022/06/09 02:02:59;;;;;;;1.13;0.70;;;17.60;99.90;;;;;;7357667;19;21245;-81
2022/06/09 02:05:31;;;;;;;0.53;0.50;;;17.60;99.90;;;;;;7354498;19;20420;-81
2022/06/09 02:08:05;;;;;;;1.60;0.60;;;17.50;99.90;;;;;;7355203;19;20931;-80
2022/06/09 02:10:37;;;;;;;0.90;0.63;;;17.60;99.90;;;;;;7351437;19;20418;-80
2022/06/09 02:13:15;;;;;;;1.53;0.70;;;17.50;99.90;;;;;;7362324;19;20388;-81
2022/06/09 02:15:47;;;;;;;0.80;0.60;;;17.50;99.90;;;;;;7351592;19;20778;-80
2022/06/09 02:18:22;;;;;;;1.93;0.70;;;17.60;99.90;;;;;;7350717;19;20471;-82
2022/06/09 02:20:55;;;;;;;2.70;0.90;;;17.60;99.90;;;;;;7358423;19;20411;-81
2022/06/09 02:23:25;;;;;;;1.23;0.80;;;17.50;99.90;;;;;;7361241;19;20416;-81
2022/06/09 02:25:57;;;;;;;1.93;0.73;;;17.60;99.90;;;;;;7362889;19;20489;-81
2022/06/09 02:28:27;;;;;;;0.97;0.73;;;17.40;99.90;;;;;;7356258;19;21077;-80
2022/06/09 02:30:56;;;;;;;1.00;0.70;;;17.30;99.90;;;;;;7348929;19;20917;-82
2022/06/09 02:33:29;;;;;;;0.77;0.77;;;17.20;99.90;;;;;;7357333;19;20770;-81
2022/06/09 02:35:58;;;;;;;1.70;0.60;;;17.30;99.90;;;;;;7348261;19;25559;-80
2022/06/09 02:38:28;;;;;;;1.67;1.10;;;17.40;99.90;;;;;;7354054;19;20440;-81
2022/06/09 02:40:58;;;;;;;2.93;1.23;;;17.40;99.90;;;;;;7354584;19;20416;-81
2022/06/09 02:43:28;;;;;;;3.80;0.83;;;17.30;99.90;;;;;;7350839;19;20506;-81
2022/06/09 02:45:57;;;;;;;0.80;0.60;;;17.30;99.90;;;;;;7353970;19;20425;-81
2022/06/09 02:48:30;;;;;;;2.70;0.77;;;17.30;99.90;;;;;;7359137;19;20479;-82
2022/06/09 02:51:16;;;;;;;1.27;0.70;;;17.40;99.90;;;;;;7351365;19;21015;-81
2022/06/09 02:53:46;;;;;;;1.07;0.73;;;17.40;99.90;;;;;;7346198;19;20795;-81
2022/06/09 02:56:15;;;;;;;1.80;0.93;;;17.50;99.90;;;;;;7349433;19;20451;-80
2022/06/09 02:58:45;;;;;;;3.63;1.03;;;17.50;99.90;;;;;;7333537;19;20432;-80
2022/06/09 03:01:14;;;;;;;2.77;0.90;;;17.50;99.90;;;;;;7359310;19;20424;-82
2022/06/09 03:03:47;;;;;;;1.93;0.87;;;17.60;99.90;;;;;;7361065;19;20416;-81
2022/06/09 03:06:20;;;;;;;1.30;1.07;;;17.60;99.90;;;;;;7356951;19;20414;-80
2022/06/09 03:08:52;;;;;;;2.10;1.00;;;17.70;99.90;;;;;;7334136;19;20416;-81
2022/06/09 03:11:21;;;;;;;1.70;1.20;;;17.60;99.90;;;;;;7365269;19;20441;-82
2022/06/09 03:13:51;;;;;;;1.23;0.73;;;17.50;99.90;;;;;;7355118;19;21087;-81
2022/06/09 03:16:21;;;;;;;1.80;0.93;;;17.40;99.90;;;;;;7362166;19;20424;-82
2022/06/09 03:18:55;;;;;;;1.43;1.00;;;17.40;99.90;;;;;;7370577;19;20480;-82
2022/06/09 03:21:25;;;;;;;1.77;0.90;;;17.50;99.90;;;;;;7373494;19;20780;-82
2022/06/09 03:23:55;;;;;;;1.80;0.83;;;17.50;99.90;;;;;;7372150;19;20403;-82
2022/06/09 03:26:25;;;;;;;4.50;1.17;;;17.50;99.90;;;;;;7368271;19;20409;-81
2022/06/09 03:28:54;;;;;;;1.03;0.90;;;17.50;99.90;;;;;;7370916;19;20936;-81
2022/06/09 03:31:24;;;;;;;1.30;0.90;;;17.40;99.90;;;;;;7373159;19;21154;-80
2022/06/09 03:33:56;;;;;;;1.60;1.47;;;17.40;99.90;;;;;;7368741;19;21459;-82
2022/06/09 03:36:26;;;;;;;3.13;0.90;;;17.40;99.90;;;;;;7374142;19;21166;-81
2022/06/09 03:38:58;;;;;;;2.83;1.10;;;17.30;99.90;;;;;;7371380;19;20400;-81
2022/06/09 03:41:30;;;;;;;2.57;0.90;;;17.40;99.90;;;;;;7362946;19;20432;-81
2022/06/09 03:44:00;;;;;;;1.53;1.00;;;17.40;99.90;;;;;;7364533;19;21260;-81
2022/06/09 03:46:29;;;;;;;2.40;0.70;;;17.30;99.90;;;;;;7386146;19;20416;-81
2022/06/09 03:49:02;;;;;;;1.27;0.80;;;17.20;99.90;;;;;;7400394;19;20395;-81
2022/06/09 03:51:37;;;;;;;1.37;0.97;;;17.30;99.90;;;;;;7360163;19;20413;-81
2022/06/09 03:54:07;;;;;;;1.93;1.10;;;17.30;99.90;;;;;;7347539;19;20428;-81
2022/06/09 03:56:39;;;;;;;2.50;1.00;;;17.40;99.90;;;;;;7345901;19;20432;-81
2022/06/09 03:59:12;;;;;;;2.80;1.30;;;17.40;99.90;;;;;;7365843;19;20797;-81
2022/06/09 04:01:42;;;;;;;1.63;1.27;;;17.40;99.90;;;;;;7371987;19;20911;-81
2022/06/09 04:04:14;;;;;;;2.87;1.23;;;17.40;99.90;;;;;;7365063;19;20451;-82
2022/06/09 04:06:44;;;;;;;2.33;1.13;;;17.40;99.90;;;;;;7364493;19;21412;-82
2022/06/09 04:09:19;;;;;;;2.93;1.60;;;17.30;99.90;;;;;;7358283;19;20416;-80
2022/06/09 04:11:48;;;;;;;2.13;1.30;;;17.30;99.90;;;;;;7351618;19;20794;-80
2022/06/09 04:14:18;;;;;;;1.60;0.93;;;17.40;99.90;;;;;;7355260;19;20516;-80
2022/06/09 04:16:54;;;;;;;3.40;1.30;;;17.40;99.90;;;;;;7352062;19;20408;-81
2022/06/09 04:19:28;;;;;;;1.40;1.30;;;17.30;99.90;;;;;;7347817;19;20412;-81
2022/06/09 04:22:00;;;;;;;2.00;1.30;;;17.40;99.90;;;;;;7350468;19;20438;-81
2022/06/09 04:24:30;;;;;;;3.53;1.50;;;17.40;99.90;;;;;;7361770;19;20404;-83
2022/06/09 04:27:00;;;;;;;2.43;1.07;;;17.50;99.90;;;;;;7359890;19;20409;-81
2022/06/09 04:29:29;;;;;;;1.90;1.20;;;17.70;99.90;;;;;;7351392;19;20427;-80
2022/06/09 04:31:59;;;;;;;3.53;1.77;;;17.60;99.90;;;;;;7356456;19;20392;-80
2022/06/09 04:34:31;;;;;;;5.23;1.43;;;17.50;99.90;;;;;;7352043;19;20500;-81
2022/06/09 04:37:01;;;;;;;4.20;1.27;;;17.50;99.90;;;;;;7357175;19;20404;-80
2022/06/09 04:39:32;;;;;;;3.43;1.27;;;17.60;99.90;;;;;;7355322;19;20977;-81
2022/06/09 04:42:02;;;;;;;9.60;5.90;;;17.60;99.90;;;;;;7346770;19;20408;-80
2022/06/09 04:44:31;;;;;;;4.00;2.00;;;17.60;99.90;;;;;;7358986;19;20436;-80
2022/06/09 04:47:01;;;;;;;2.73;1.57;;;17.60;99.90;;;;;;7350157;19;20420;-80
2022/06/09 04:49:38;;;;;;;5.37;1.30;;;17.60;99.90;;;;;;7367871;19;20408;-81
2022/06/09 04:52:07;;;;;;;2.70;1.00;;;17.50;99.90;;;;;;7353013;19;20412;-80
2022/06/09 04:54:37;;;;;;;4.43;1.63;;;17.40;99.90;;;;;;7347441;19;21548;-81
2022/06/09 04:57:07;;;;;;;2.83;1.73;;;17.40;99.90;;;;;;7348149;19;20930;-81
2022/06/09 04:59:36;;;;;;;3.73;2.43;;;17.40;99.90;;;;;;7362095;19;20424;-80
2022/06/09 05:02:06;;;;;;;3.37;1.90;;;17.30;99.90;;;;;;7365379;19;20412;-81
2022/06/09 05:04:39;;;;;;;3.53;2.00;;;17.30;99.90;;;;;;7361808;19;20399;-82
2022/06/09 05:07:09;;;;;;;3.20;1.40;;;17.20;99.90;;;;;;7351265;19;20562;-81
2022/06/09 05:09:38;;;;;;;1.80;1.37;;;17.20;99.90;;;;;;7362554;19;20416;-82
2022/06/09 05:12:08;;;;;;;6.80;2.77;;;17.00;99.90;;;;;;7358780;19;20408;-83
2022/06/09 05:14:37;;;;;;;3.03;1.93;;;17.00;99.90;;;;;;7365184;19;20392;-83
2022/06/09 05:17:07;;;;;;;2.70;2.27;;;17.10;99.90;;;;;;7361060;19;20420;-84
2022/06/09 05:19:42;;;;;;;4.10;2.73;;;17.10;99.90;;;;;;7372411;19;21104;-84
2022/06/09 05:22:12;;;;;;;3.40;2.87;;;17.20;99.90;;;;;;7367977;19;20415;-83
2022/06/09 05:24:41;;;;;;;5.80;2.53;;;17.20;99.90;;;;;;7373901;19;20400;-84
2022/06/09 05:27:14;;;;;;;6.57;2.00;;;17.30;99.90;;;;;;7370609;19;20421;-83
2022/06/09 05:29:46;;;;;;;3.30;1.60;;;17.20;99.90;;;;;;7374309;19;21228;-83
2022/06/09 05:32:15;;;;;;;3.50;1.90;;;17.20;99.90;;;;;;7358848;19;20935;-82
2022/06/09 05:34:50;;;;;;;2.57;1.47;;;17.30;99.90;;;;;;7369479;19;20406;-83
2022/06/09 05:37:19;;;;;;;2.87;1.57;;;17.40;99.90;;;;;;7370498;19;20376;-83
2022/06/09 05:45:16;;;;;;;5.07;1.63;;;17.50;99.90;;;;;;7372788;19;20404;-83
2022/06/09 05:47:48;;;;;;;2.03;1.50;;;17.50;99.90;;;;;;7370267;19;20404;-83
2022/06/09 05:50:22;;;;;;;4.97;1.53;;;17.50;99.90;;;;;;7373133;19;20420;-83
2022/06/09 05:52:52;;;;;;;2.77;1.53;;;17.60;99.90;;;;;;7372832;19;20487;-83
2022/06/09 05:55:22;;;;;;;3.30;1.40;;;17.80;99.90;;;;;;7367921;19;21464;-84
2022/06/09 05:57:51;;;;;;;4.57;1.63;;;18.00;99.90;;;;;;7368446;19;20963;-83
2022/06/09 06:00:21;;;;;;;2.10;1.37;;;18.20;99.90;;;;;;7373225;19;20519;-83
2022/06/09 06:02:53;;;;;;;3.97;1.10;;;18.30;99.90;;;;;;7372616;19;20407;-81
2022/06/09 06:08:10;;;;;;;2.87;1.50;;;18.40;99.90;;;;;;7368524;19;20408;-82
2022/06/09 06:10:40;;;;;;;1.97;1.30;;;18.60;99.90;;;;;;7371990;19;20416;-82
2022/06/09 06:13:09;;;;;;;3.17;1.30;;;18.70;99.90;;;;;;7368912;19;20416;-82
2022/06/09 06:15:39;;;;;;;1.70;1.10;;;19.00;99.90;;;;;;7372141;19;20518;-82
2022/06/09 06:18:09;;;;;;;2.87;1.40;;;19.10;99.90;;;;;;7368461;19;20419;-83
2022/06/09 06:20:41;;;;;;;3.53;1.27;;;19.20;99.90;;;;;;7369027;19;20774;-83
2022/06/09 06:23:11;;;;;;;3.20;1.00;;;19.30;99.00;;;;;;7365400;19;20420;-82
2022/06/09 06:25:40;;;;;;;4.20;1.43;;;19.20;98.50;;;;;;7372729;19;20420;-82
2022/06/09 06:28:10;;;;;;;5.07;1.80;;;19.20;98.90;;;;;;7375534;19;21235;-83
2022/06/09 06:30:39;;;;;;;1.40;0.90;;;19.20;98.10;;;;;;7383154;19;20439;-87
2022/06/09 06:33:09;;;;;;;2.30;0.90;;;19.40;97.90;;;;;;7389320;19;20399;-88
2022/06/09 06:35:41;;;;;;;3.90;1.30;;;19.70;97.30;;;;;;7390026;19;20418;-87
2022/06/09 06:38:11;;;;;;;2.93;1.07;;;19.80;96.40;;;;;;7392445;19;21268;-87
2022/06/09 06:40:41;;;;;;;3.03;1.33;;;20.00;96.10;;;;;;7391565;19;20746;-87
2022/06/09 06:43:10;;;;;;;3.23;1.30;;;20.00;95.50;;;;;;7386239;19;20432;-88
2022/06/09 06:45:40;;;;;;;1.50;0.90;;;19.80;95.10;;;;;;7390716;19;20420;-86
2022/06/09 06:48:12;;;;;;;4.87;1.07;;;19.70;95.00;;;;;;7394362;19;20452;-88
2022/06/09 06:50:44;;;;;;;3.67;1.43;;;19.60;95.40;;;;;;7390552;19;20396;-88
2022/06/09 06:53:14;;;;;;;2.93;1.37;;;19.70;95.00;;;;;;7391634;19;20392;-88
2022/06/09 06:55:44;;;;;;;3.00;1.00;;;19.60;94.70;;;;;;7385141;19;20755;-88
2022/06/09 06:58:14;;;;;;;3.63;1.00;;;19.50;93.10;;;;;;7381122;19;20893;-88
2022/06/09 07:00:44;;;;;;;4.80;1.20;;;19.40;92.80;;;;;;7373958;19;20488;-83
2022/06/09 07:03:14;;;;;;;3.90;1.73;;;19.20;93.00;;;;;;7374996;19;20458;-82
2022/06/09 07:05:47;;;;;;;6.63;1.20;;;19.10;92.90;;;;;;7377247;19;20420;-83
2022/06/09 07:08:19;;;;;;;3.60;1.10;;;19.10;93.30;;;;;;7379034;19;20957;-83
2022/06/09 07:10:48;;;;;;;7.27;2.10;;;19.30;93.70;;;;;;7372599;19;20421;-83
2022/06/09 07:13:20;;;;;;;3.63;1.43;;;19.50;93.00;;;;;;7378437;19;21023;-82
2022/06/09 07:15:50;;;;;;;4.17;1.20;;;19.70;91.70;;;;;;7377753;19;20527;-83
2022/06/09 07:18:20;;;;;;;2.70;0.80;;;19.70;91.00;;;;;;7377374;19;20928;-83
2022/06/09 07:20:52;;;;;;;2.73;1.10;;;19.60;90.60;;;;;;7375517;19;20719;-82
2022/06/09 07:23:22;;;;;;;2.43;1.00;;;19.30;89.10;;;;;;7373552;19;20400;-83
2022/06/09 07:25:52;;;;;;;5.73;1.63;;;19.30;89.20;;;;;;7377177;19;20436;-82
2022/06/09 07:28:21;;;;;;;5.40;2.27;;;19.40;90.30;;;;;;7374846;19;21138;-82
2022/06/09 07:30:56;;;;;;;60.70;24.50;;;19.60;89.60;;;;;;7375988;19;20400;-82
2022/06/09 07:33:26;;;;;;;18.87;9.00;;;19.80;88.80;;;;;;7370613;19;20420;-82
2022/06/09 07:35:59;;;;;;;2.60;1.50;;;20.00;87.70;;;;;;7371967;19;20483;-82
2022/06/09 07:38:30;;;;;;;4.00;1.17;;;20.00;86.90;;;;;;7370469;19;20409;-82
2022/06/09 07:41:00;;;;;;;3.77;1.07;;;20.10;86.60;;;;;;7377144;19;20412;-82
2022/06/09 07:43:29;;;;;;;4.00;1.20;;;20.20;87.00;;;;;;7373440;19;20446;-83
2022/06/09 07:45:59;;;;;;;5.30;1.20;;;20.40;86.00;;;;;;7365890;19;20408;-84
2022/06/09 07:48:29;;;;;;;1.37;0.83;;;20.40;84.20;;;;;;7373759;19;20420;-84
2022/06/09 07:51:01;;;;;;;3.03;1.10;;;20.50;84.60;;;;;;7376377;19;20402;-83
2022/06/09 07:53:31;;;;;;;5.27;1.10;;;20.40;81.40;;;;;;7376231;19;20408;-83
2022/06/09 07:56:00;;;;;;;5.43;0.90;;;20.30;82.60;;;;;;7372074;19;20984;-82
2022/06/09 07:58:32;;;;;;;3.37;0.80;;;20.30;80.40;;;;;;7375554;19;20424;-81
2022/06/09 08:01:04;;;;;;;2.70;1.20;;;20.30;78.90;;;;;;7375741;19;20436;-80
2022/06/09 08:03:34;;;;;;;3.67;1.70;;;20.40;79.50;;;;;;7375565;19;20419;-81
2022/06/09 08:06:06;;;;;;;1.97;0.80;;;20.60;76.80;;;;;;7378251;19;20432;-81
2022/06/09 08:08:36;;;;;;;3.10;1.03;;;20.80;75.90;;;;;;7372122;19;21506;-83
2022/06/09 08:11:07;;;;;;;3.43;1.17;;;20.80;74.30;;;;;;7389931;19;20944;-90
2022/06/09 08:13:37;;;;;;;2.67;1.20;;;20.90;73.50;;;;;;7395637;19;20408;-90
2022/06/09 08:16:08;;;;;;;1.77;1.00;;;21.00;72.10;;;;;;7388020;19;21046;-89
2022/06/09 08:18:40;;;;;;;2.40;0.70;;;21.00;72.80;;;;;;7389816;19;20397;-89
2022/06/09 08:21:15;;;;;;;2.53;0.70;;;21.00;73.20;;;;;;7389268;19;21245;-88
2022/06/09 08:23:44;;;;;;;2.83;0.90;;;21.20;72.20;;;;;;7387534;19;20416;-88
2022/06/09 08:26:14;;;;;;;4.50;1.27;;;21.40;70.10;;;;;;7394165;19;20418;-92
2022/06/09 08:28:43;;;;;;;3.80;0.90;;;21.60;70.30;;;;;;7398131;19;20888;-90
2022/06/09 08:31:13;;;;;;;3.33;1.00;;;21.90;68.60;;;;;;7394652;19;20404;-89
2022/06/09 08:33:43;;;;;;;2.83;1.00;;;22.20;67.30;;;;;;7396361;19;20971;-89
2022/06/09 08:36:15;;;;;;;5.60;1.10;;;22.20;66.10;;;;;;7391819;19;20419;-89
2022/06/09 08:38:48;;;;;;;1.53;0.80;;;22.30;66.30;;;;;;7395860;19;20439;-90
2022/06/09 08:41:35;;;;;;;6.83;1.30;;;22.30;67.20;;;;;;7383407;19;20412;-83
2022/06/09 08:44:14;;;;;;;4.23;1.33;;;22.20;65.40;;;;;;7379088;19;20950;-83
2022/06/09 08:46:51;;;;;;;3.47;1.30;;;21.90;66.60;;;;;;7378446;19;20396;-83
2022/06/09 08:49:42;;;;;;;6.60;1.90;;;21.60;67.30;;;;;;7378666;19;20509;-82
2022/06/09 08:52:25;;;;;;;2.30;1.20;;;21.80;69.00;;;;;;7376808;19;20500;-82
2022/06/09 08:54:57;;;;;;;2.47;0.80;;;22.00;66.40;;;;;;7381186;19;20413;-83
2022/06/09 08:57:33;;;;;;;2.50;1.00;;;21.90;64.20;;;;;;7381367;19;20423;-83
2022/06/09 09:00:06;;;;;;;4.47;1.03;;;21.80;65.10;;;;;;7382137;19;20412;-83
2022/06/09 09:02:41;;;;;;;3.37;1.07;;;21.50;65.70;;;;;;7379396;19;20420;-83
2022/06/09 09:05:19;;;;;;;4.17;1.10;;;21.70;67.80;;;;;;7375516;19;20408;-83
2022/06/09 09:07:54;;;;;;;4.03;1.20;;;22.40;63.40;;;;;;7378119;19;20899;-83
2022/06/09 09:10:28;;;;;;;2.60;1.07;;;22.80;61.60;;;;;;7379632;19;20408;-83
2022/06/09 09:13:08;;;;;;;4.83;1.57;;;23.10;60.30;;;;;;7378378;19;20426;-84
2022/06/09 09:15:42;;;;;;;4.97;1.07;;;23.10;59.10;;;;;;7375703;19;20733;-83
2022/06/09 09:18:28;;;;;;;2.73;1.10;;;23.40;58.50;;;;;;7373961;19;20447;-83
2022/06/09 09:21:08;;;;;;;3.60;1.73;;;23.60;57.40;;;;;;7378045;19;20438;-82
2022/06/09 09:23:46;;;;;;;2.03;1.00;;;23.90;57.50;;;;;;7373809;19;20412;-83
2022/06/09 09:26:24;;;;;;;4.70;1.10;;;24.40;56.10;;;;;;7373333;19;20410;-83
2022/06/09 09:29:02;;;;;;;1.83;0.80;;;25.00;55.30;;;;;;7378138;19;20420;-83
2022/06/09 09:31:50;;;;;;;3.07;0.90;;;25.60;53.70;;;;;;7374831;19;20396;-83
2022/06/09 09:34:22;;;;;;;1.83;0.90;;;26.00;52.30;;;;;;7376434;19;20902;-83
2022/06/09 09:36:55;;;;;;;3.33;2.10;;;26.60;50.60;;;;;;7373866;19;20404;-83
2022/06/09 09:39:44;;;;;;;2.80;0.80;;;26.90;49.10;;;;;;7374174;19;20404;-83
2022/06/09 09:42:17;;;;;;;5.00;1.40;;;27.10;48.50;;;;;;7383167;19;20400;-87
2022/06/09 09:45:03;;;;;;;3.97;1.23;;;26.70;48.70;;;;;;7384621;19;20523;-88
2022/06/09 09:47:35;;;;;;;2.13;1.17;;;26.20;49.50;;;;;;7366814;19;20397;-88
2022/06/09 09:50:10;;;;;;;4.10;1.63;;;25.60;50.60;;;;;;7376786;19;20467;-89
2022/06/09 09:52:43;;;;;;;3.97;1.53;;;25.00;51.60;;;;;;7376667;19;20402;-89
2022/06/09 09:55:32;;;;;;;2.83;1.27;;;24.70;53.90;;;;;;7373358;19;20437;-88
2022/06/09 09:58:19;;;;;;;8.83;1.27;;;25.60;52.20;;;;;;7375678;19;20441;-88
2022/06/09 10:00:51;;;;;;;3.77;1.20;;;26.90;50.00;;;;;;7373681;19;20408;-90
2022/06/09 10:09:07;;;;;;;2.30;1.10;;;29.40;42.70;;;;;;7384486;19;20425;-88
2022/06/09 10:11:58;;;;;;;3.33;1.17;;;29.00;41.70;;;;;;7378791;19;20866;-83
2022/06/09 10:14:34;;;;;;;3.27;0.90;;;28.80;42.10;;;;;;7378478;19;20483;-83
2022/06/09 10:17:07;;;;;;;3.33;1.30;;;29.00;41.80;;;;;;7379962;19;20403;-82
2022/06/09 10:19:38;;;;;;;3.70;1.30;;;29.10;41.30;;;;;;7376078;19;20413;-83
2022/06/09 10:22:20;;;;;;;2.00;0.60;;;28.70;41.70;;;;;;7365156;19;20419;-83
2022/06/09 10:24:56;;;;;;;2.07;0.90;;;29.50;41.40;;;;;;7370160;19;20404;-83
2022/06/09 10:27:35;;;;;;;1.20;0.90;;;29.90;39.30;;;;;;7378593;19;21745;-82
2022/06/09 10:30:13;;;;;;;1.90;1.13;;;29.90;38.70;;;;;;7374952;19;20411;-83
2022/06/09 10:32:49;;;;;;;6.10;1.00;;;28.80;40.00;;;;;;7376848;19;20412;-84
2022/06/09 10:35:27;;;;;;;2.73;1.00;;;27.80;42.50;;;;;;7370369;19;20411;-83
2022/06/09 10:38:02;;;;;;;2.50;0.83;;;28.10;43.50;;;;;;7379797;19;21002;-83
2022/06/09 10:40:41;;;;;;;5.00;1.30;;;29.80;40.00;;;;;;7376735;19;20426;-83
2022/06/09 10:43:24;;;;;;;2.77;1.10;;;30.70;37.70;;;;;;7373345;19;20407;-84
2022/06/09 10:46:01;;;;;;;2.20;0.93;;;30.30;38.00;;;;;;7372933;19;20408;-82
2022/06/09 10:57:12;;;;;;;1.10;0.70;;;29.70;40.40;;;;;;7363809;19;20420;-83
2022/06/09 10:59:52;;;;;;;2.37;0.93;;;31.40;35.50;;;;;;7369360;19;20407;-83
2022/06/09 11:02:24;;;;;;;2.23;1.00;;;32.70;32.50;;;;;;7371744;19;20388;-83
2022/06/09 11:04:56;;;;;;;3.77;0.60;;;34.00;30.70;;;;;;7366789;19;20397;-82
2022/06/09 11:07:56;;;;;;;3.00;0.90;;;34.40;30.60;;;;;;7376390;19;20391;-83
2022/06/09 11:10:39;;;;;;;1.90;0.60;;;34.90;30.70;;;;;;7377643;19;20415;-82
2022/06/09 11:13:45;;;;;;;2.60;1.17;;;35.50;29.90;;;;;;7369125;19;20417;-82
2022/06/09 11:16:21;;;;;;;3.43;1.67;;;34.60;30.20;;;;;;7375437;19;20388;-83
2022/06/09 11:19:07;;;;;;;3.50;1.50;;;32.30;31.60;;;;;;7372956;19;20412;-82
2022/06/09 11:21:43;;;;;;;4.47;2.07;;;31.50;33.50;;;;;;7365603;19;20392;-82
2022/06/09 11:24:28;;;;;;;2.83;1.10;;;32.10;32.40;;;;;;7367838;19;20404;-85
2022/06/09 11:27:14;;;;;;;2.80;1.70;;;33.20;31.40;;;;;;7357942;19;20421;-82
2022/06/09 11:30:04;;;;;;;3.80;1.50;;;34.20;31.10;;;;;;7366399;19;20427;-83
2022/06/09 11:32:40;;;;;;;2.63;1.37;;;35.00;31.10;;;;;;7372911;19;21463;-82
2022/06/09 11:35:28;;;;;;;2.77;1.20;;;35.10;29.90;;;;;;7375294;19;20413;-84
2022/06/09 11:38:23;;;;;;;3.40;1.47;;;34.20;30.60;;;;;;7377065;19;20372;-83
2022/06/09 11:41:05;;;;;;;5.73;1.20;;;32.60;32.80;;;;;;7376544;19;20759;-83
2022/06/09 11:43:46;;;;;;;4.33;1.23;;;31.20;34.90;;;;;;7374253;19;20384;-82
2022/06/09 11:46:21;;;;;;;2.27;1.03;;;30.80;35.00;;;;;;7374033;19;20411;-82
2022/06/09 11:48:58;;;;;;;2.40;1.10;;;30.40;35.50;;;;;;7376574;19;20396;-83
2022/06/09 11:51:31;;;;;;;2.57;1.20;;;29.80;36.50;;;;;;7375647;19;20372;-82
2022/06/09 11:54:03;;;;;;;4.80;1.20;;;29.30;38.10;;;;;;7376708;19;21308;-82
2022/06/09 11:56:37;;;;;;;1.93;1.10;;;29.50;37.40;;;;;;7371260;19;20435;-82
2022/06/09 11:59:17;;;;;;;2.50;1.00;;;29.60;38.00;;;;;;7370880;19;20459;-82
2022/06/09 12:02:06;;;;;;;3.00;1.90;;;30.80;37.00;;;;;;7371129;19;20519;-83
2022/06/09 12:05:15;;;;;;;4.00;1.60;;;32.40;34.70;;;;;;7375228;19;20747;-83
2022/06/09 12:08:00;;;;;;;2.40;0.83;;;34.40;29.80;;;;;;7375150;19;20435;-83
2022/06/09 12:10:47;;;;;;;6.73;1.13;;;34.60;30.30;;;;;;7374894;19;20408;-81
2022/06/09 12:13:23;;;;;;;4.67;1.33;;;34.90;29.60;;;;;;7376984;19;20548;-83
2022/06/09 12:15:58;;;;;;;3.73;1.40;;;36.00;28.60;;;;;;7373018;19;21394;-84
2022/06/09 12:18:37;;;;;;;4.30;0.90;;;36.70;28.00;;;;;;7376633;19;20404;-82
2022/06/09 12:21:31;;;;;;;1.50;1.20;;;37.50;27.20;;;;;;7373477;19;20411;-84
2022/06/09 12:24:37;;;;;;;2.67;1.40;;;37.90;26.30;;;;;;7373715;19;20423;-84
2022/06/09 12:27:39;;;;;;;3.70;1.10;;;38.30;26.40;;;;;;7380122;19;20400;-83
2022/06/09 12:30:35;;;;;;;1.80;0.90;;;38.50;26.10;;;;;;7377796;19;20923;-84
2022/06/09 12:33:31;;;;;;;2.37;0.70;;;38.70;25.80;;;;;;7377890;19;20422;-85
2022/06/09 12:36:05;;;;;;;1.60;0.60;;;38.30;24.90;;;;;;7375967;19;20941;-84
2022/06/09 12:38:42;;;;;;;2.73;0.97;;;38.60;24.70;;;;;;7375545;19;20416;-85
2022/06/09 12:41:21;;;;;;;3.27;1.00;;;38.80;24.00;;;;;;7377257;19;20539;-84
2022/06/09 12:43:59;;;;;;;3.30;1.13;;;39.20;23.70;;;;;;7376370;19;20429;-84
2022/06/09 12:46:31;;;;;;;1.50;0.83;;;38.80;24.90;;;;;;7372420;19;20412;-84
2022/06/09 12:49:16;;;;;;;2.63;0.67;;;38.60;24.20;;;;;;7376610;19;20950;-84
2022/06/09 12:51:46;;;;;;;2.60;1.10;;;38.10;23.50;;;;;;7370217;19;20416;-85
2022/06/09 12:54:29;;;;;;;2.30;0.80;;;38.30;23.60;;;;;;7374802;19;20745;-85
2022/06/09 12:57:03;;;;;;;2.57;1.03;;;38.30;23.50;;;;;;7369784;19;20415;-84
2022/06/09 12:59:36;;;;;;;2.50;1.13;;;38.70;23.90;;;;;;7372884;19;20435;-85
2022/06/09 13:02:23;;;;;;;2.73;1.00;;;38.50;24.30;;;;;;7369768;19;20940;-82
2022/06/09 13:05:01;;;;;;;2.70;1.07;;;38.80;24.30;;;;;;7373693;19;21201;-84
2022/06/09 13:07:34;;;;;;;6.23;1.33;;;38.80;24.00;;;;;;7373149;19;20444;-84
2022/06/09 13:10:20;;;;;;;2.27;0.90;;;38.80;24.00;;;;;;7375876;19;20483;-85
2022/06/09 13:12:58;;;;;;;3.80;1.17;;;38.20;24.40;;;;;;7374683;19;21206;-85
2022/06/09 13:15:37;;;;;;;3.10;0.97;;;37.50;25.30;;;;;;7375242;19;20415;-84
2022/06/09 13:18:18;;;;;;;2.40;1.07;;;37.20;25.50;;;;;;7343638;19;21128;-83
2022/06/09 13:20:51;;;;;;;2.67;0.90;;;37.20;25.80;;;;;;7371530;19;20947;-83
2022/06/09 13:23:22;;;;;;;3.43;0.90;;;37.00;26.30;;;;;;7369446;19;20441;-83
2022/06/09 13:25:58;;;;;;;2.83;0.87;;;37.20;26.10;;;;;;7371348;19;20404;-84
2022/06/09 13:28:39;;;;;;;1.53;1.00;;;37.70;24.80;;;;;;7374172;19;20408;-82
2022/06/09 13:31:27;;;;;;;4.30;2.10;;;38.00;24.20;;;;;;7371569;19;20423;-82
2022/06/09 13:34:00;;;;;;;2.93;1.30;;;38.40;23.80;;;;;;7373914;19;21217;-84
2022/06/09 13:36:33;;;;;;;3.83;1.20;;;37.70;23.90;;;;;;7369735;19;20424;-84
2022/06/09 13:39:28;;;;;;;3.37;1.17;;;36.50;25.30;;;;;;7372251;19;20940;-85
2022/06/09 13:42:08;;;;;;;2.67;1.37;;;35.60;26.70;;;;;;7373281;19;21053;-84
2022/06/09 13:44:42;;;;;;;2.60;1.07;;;34.70;27.70;;;;;;7365078;19;20442;-84
2022/06/09 13:47:18;;;;;;;2.33;0.87;;;33.80;28.40;;;;;;7373839;19;21087;-85